createdAt,value
2019-02-05T00:00:20.017Z,96.10
2019-02-05T00:02:48.730Z,96.10
2019-02-05T00:05:17.168Z,96.00
2019-02-05T00:07:45.894Z,95.90
2019-02-05T00:10:14.412Z,96.00
2019-02-05T00:12:43.281Z,96.10
2019-02-05T00:15:11.788Z,96.20
2019-02-05T00:17:40.209Z,95.60
2019-02-05T00:20:09.242Z,95.40
2019-02-05T00:22:37.665Z,95.40
2019-02-05T00:25:06.705Z,95.20
2019-02-05T00:27:35.125Z,94.70
2019-02-05T00:30:05.137Z,94.70
2019-02-05T00:32:33.886Z,94.70
2019-02-05T00:35:03.186Z,95.30
2019-02-05T00:37:31.977Z,95.40
2019-02-05T00:40:00.740Z,95.20
2019-02-05T00:42:29.234Z,95.30
2019-02-05T00:44:58.038Z,95.20
2019-02-05T00:47:26.822Z,95.40
2019-02-05T00:49:55.537Z,95.10
2019-02-05T00:52:23.966Z,95.00
2019-02-05T00:54:52.410Z,95.30
2019-02-05T00:57:20.905Z,95.20
2019-02-05T00:59:49.348Z,94.90
2019-02-05T01:02:17.842Z,94.70
2019-02-05T01:04:46.289Z,94.60
2019-02-05T01:07:15.082Z,94.80
2019-02-05T01:09:43.584Z,94.50
2019-02-05T01:12:12.162Z,94.30
2019-02-05T01:14:40.681Z,94.80
2019-02-05T01:17:09.179Z,95.00
2019-02-05T01:19:37.693Z,95.10
2019-02-05T01:22:06.810Z,95.00
2019-02-05T01:24:35.597Z,95.10
2019-02-05T01:27:04.373Z,95.10
2019-02-05T01:29:33.161Z,95.10
2019-02-05T01:32:01.844Z,95.10
2019-02-05T01:34:30.653Z,94.60
2019-02-05T01:36:59.458Z,94.80
2019-02-05T01:39:27.889Z,95.10
2019-02-05T01:41:56.654Z,95.40
2019-02-05T01:44:25.401Z,95.50
2019-02-05T01:46:53.894Z,95.50
2019-02-05T01:49:22.644Z,95.30
2019-02-05T01:51:51.465Z,95.10
2019-02-05T01:54:19.889Z,95.00
2019-02-05T01:56:48.325Z,95.00
2019-02-05T01:59:17.085Z,95.60
2019-02-05T02:01:45.874Z,95.20
2019-02-05T02:04:14.662Z,95.10
2019-02-05T02:06:43.179Z,94.90
2019-02-05T02:09:11.932Z,95.10
2019-02-05T02:11:40.445Z,95.30
2019-02-05T02:14:09.206Z,95.30
2019-02-05T02:16:37.994Z,95.30
2019-02-05T02:19:06.777Z,95.00
2019-02-05T02:21:35.605Z,95.20
2019-02-05T02:24:04.878Z,95.00
2019-02-05T02:26:33.657Z,95.20
2019-02-05T02:29:02.449Z,95.00
2019-02-05T02:31:30.957Z,95.50
2019-02-05T02:33:59.726Z,95.40
2019-02-05T02:36:28.237Z,95.50
2019-02-05T02:38:56.658Z,95.20
2019-02-05T02:41:25.101Z,95.30
2019-02-05T02:43:53.526Z,95.80
2019-02-05T02:46:22.336Z,95.90
2019-02-05T02:48:51.922Z,96.00
2019-02-05T02:51:20.441Z,95.80
2019-02-05T02:53:49.234Z,95.50
2019-02-05T02:56:17.866Z,95.60
2019-02-05T02:58:46.349Z,95.60
2019-02-05T03:01:14.800Z,95.70
2019-02-05T03:03:43.298Z,95.80
2019-02-05T03:06:11.886Z,95.80
2019-02-05T03:08:40.376Z,96.30
2019-02-05T03:11:08.890Z,96.20
2019-02-05T03:13:37.597Z,96.50
2019-02-05T03:16:06.093Z,96.70
2019-02-05T03:18:34.608Z,96.60
2019-02-05T03:21:03.529Z,96.60
2019-02-05T03:23:31.970Z,96.50
2019-02-05T03:26:00.472Z,96.80
2019-02-05T03:28:29.197Z,96.80
2019-02-05T03:30:57.623Z,97.20
2019-02-05T03:33:26.071Z,97.30
2019-02-05T03:35:54.955Z,97.60
2019-02-05T03:38:23.470Z,97.60
2019-02-05T03:41:00.486Z,97.70
2019-02-05T03:43:28.926Z,97.60
2019-02-05T03:45:58.366Z,97.60
2019-02-05T03:48:27.421Z,97.90
2019-02-05T03:50:58.930Z,98.00
2019-02-05T03:53:30.789Z,97.80
2019-02-05T03:56:18.917Z,97.40
2019-02-05T03:58:59.829Z,97.10
2019-02-05T04:02:00.074Z,97.30
2019-02-05T04:04:40.450Z,97.10
2019-02-05T04:07:24.238Z,97.10
2019-02-05T04:10:15.154Z,97.10
2019-02-05T04:12:52.846Z,97.20
2019-02-05T04:15:26.985Z,97.20
2019-02-05T04:17:58.507Z,97.20
2019-02-05T04:20:55.861Z,97.20
2019-02-05T04:23:46.690Z,97.20
2019-02-05T04:26:20.722Z,97.20
2019-02-05T04:29:22.335Z,97.20
2019-02-05T04:32:11.226Z,97.20
2019-02-05T04:35:15.475Z,97.20
2019-02-05T04:37:49.688Z,97.20
2019-02-05T04:40:21.297Z,97.20
2019-02-05T04:42:58.909Z,97.20
2019-02-05T04:45:48.877Z,97.20
2019-02-05T04:48:56.032Z,97.50
2019-02-05T04:51:33.657Z,97.50
2019-02-05T04:54:08.401Z,97.50
2019-02-05T04:56:42.618Z,97.40
2019-02-05T04:59:20.085Z,97.60
2019-02-05T05:02:12.650Z,97.50
2019-02-05T05:05:08.267Z,97.70
2019-02-05T05:07:55.025Z,97.50
2019-02-05T05:10:23.464Z,97.20
2019-02-05T05:12:51.893Z,97.60
2019-02-05T05:15:20.409Z,97.80
2019-02-05T05:17:49.194Z,97.90
2019-02-05T05:20:17.985Z,97.90
2019-02-05T05:22:47.397Z,98.10
2019-02-05T05:25:16.005Z,97.90
2019-02-05T05:27:44.761Z,97.90
2019-02-05T05:30:15.935Z,97.90
2019-02-05T05:32:44.798Z,97.80
2019-02-05T05:35:13.465Z,98.00
2019-02-05T05:37:42.270Z,98.10
2019-02-05T05:40:11.681Z,98.20
2019-02-05T05:42:40.273Z,97.60
2019-02-05T05:45:13.562Z,97.90
2019-02-05T05:47:42.457Z,98.00
2019-02-05T05:50:13.806Z,97.90
2019-02-05T05:52:42.388Z,97.80
2019-02-05T05:55:11.594Z,97.80
2019-02-05T05:57:40.100Z,98.20
2019-02-05T06:00:12.739Z,97.70
2019-02-05T06:02:41.262Z,97.80
2019-02-05T06:05:10.225Z,98.00
2019-02-05T06:07:38.678Z,98.10
2019-02-05T06:10:10.563Z,98.20
2019-02-05T06:12:39.005Z,98.20
2019-02-05T06:15:10.268Z,98.30
2019-02-05T06:17:38.865Z,98.50
2019-02-05T06:20:13.309Z,98.40
2019-02-05T06:22:41.753Z,98.50
2019-02-05T06:25:10.802Z,98.30
2019-02-05T06:27:39.710Z,98.20
2019-02-05T06:30:16.529Z,98.30
2019-02-05T06:32:45.421Z,98.50
2019-02-05T06:35:15.809Z,98.60
2019-02-05T06:37:44.753Z,98.80
2019-02-05T06:40:16.637Z,98.90
2019-02-05T06:42:45.084Z,98.90
2019-02-05T06:45:15.514Z,98.90
2019-02-05T06:47:44.368Z,98.90
2019-02-05T06:50:13.841Z,98.60
2019-02-05T06:52:42.457Z,98.90
2019-02-05T06:55:13.841Z,98.60
2019-02-05T06:57:42.731Z,98.90
2019-02-05T07:00:19.968Z,98.50
2019-02-05T07:02:48.483Z,98.40
2019-02-05T07:05:17.570Z,98.40
2019-02-05T07:07:46.407Z,98.50
2019-02-05T07:10:18.413Z,98.60
2019-02-05T07:12:47.355Z,98.70
2019-02-05T07:15:16.229Z,98.60
2019-02-05T07:17:49.961Z,98.30
2019-02-05T07:20:16.673Z,98.30
2019-02-05T07:22:45.977Z,98.30
2019-02-05T07:25:19.253Z,98.00
2019-02-05T07:27:48.017Z,97.90
2019-02-05T07:30:26.949Z,98.20
2019-02-05T07:32:55.589Z,98.20
2019-02-05T07:35:24.581Z,98.20
2019-02-05T07:37:53.150Z,98.20
2019-02-05T07:40:23.553Z,98.10
2019-02-05T07:42:52.053Z,98.00
2019-02-05T07:45:24.143Z,97.90
2019-02-05T07:47:52.911Z,97.90
2019-02-05T07:50:28.502Z,97.50
2019-02-05T07:52:56.966Z,97.50
2019-02-05T07:55:25.856Z,97.30
2019-02-05T07:57:54.721Z,97.40
2019-02-05T08:00:26.052Z,97.10
2019-02-05T08:02:54.857Z,97.00
2019-02-05T08:05:26.447Z,97.30
2019-02-05T08:07:55.509Z,96.80
2019-02-05T08:10:24.088Z,97.40
2019-02-05T08:12:53.081Z,99.10
2019-02-05T08:15:24.738Z,98.70
2019-02-05T08:17:53.629Z,97.30
2019-02-05T08:20:22.387Z,96.60
2019-02-05T08:22:50.964Z,96.50
2019-02-05T08:25:19.481Z,96.40
2019-02-05T08:27:48.054Z,96.20
2019-02-05T08:30:19.385Z,95.80
2019-02-05T08:32:47.889Z,95.70
2019-02-05T08:35:17.849Z,95.40
2019-02-05T08:37:46.602Z,95.40
2019-02-05T08:40:20.516Z,95.30
2019-02-05T08:42:49.511Z,95.10
2019-02-05T08:45:27.103Z,94.80
2019-02-05T08:47:56.094Z,94.90
2019-02-05T08:50:29.431Z,94.70
2019-02-05T08:52:58.386Z,94.40
2019-02-05T08:55:26.910Z,94.40
2019-02-05T08:57:58.221Z,94.20
2019-02-05T09:00:30.279Z,94.30
2019-02-05T09:02:58.922Z,94.00
2019-02-05T09:05:27.518Z,93.80
2019-02-05T09:07:56.086Z,94.10
2019-02-05T09:10:27.674Z,94.00
2019-02-05T09:12:56.440Z,93.40
2019-02-05T09:15:29.562Z,92.30
2019-02-05T09:17:56.698Z,92.50
2019-02-05T09:20:25.549Z,92.30
2019-02-05T09:22:54.418Z,92.30
2019-02-05T09:25:23.094Z,92.20
2019-02-05T09:27:52.075Z,91.70
2019-02-05T09:30:22.933Z,91.30
2019-02-05T09:32:54.427Z,91.40
2019-02-05T09:35:23.007Z,91.40
2019-02-05T09:37:51.505Z,91.40
2019-02-05T09:40:26.357Z,91.10
2019-02-05T09:42:54.853Z,90.50
2019-02-05T09:45:24.405Z,90.80
2019-02-05T09:47:53.345Z,91.40
2019-02-05T09:50:22.001Z,91.60
2019-02-05T09:52:50.499Z,90.90
2019-02-05T09:55:22.374Z,90.10
2019-02-05T09:57:51.177Z,91.30
2019-02-05T10:00:31.521Z,91.40
2019-02-05T10:03:00.823Z,89.50
2019-02-05T10:05:34.219Z,89.90
2019-02-05T10:08:02.716Z,86.00
2019-02-05T10:10:31.397Z,88.30
2019-02-05T10:13:00.054Z,88.70
2019-02-05T10:15:33.741Z,89.80
2019-02-05T10:18:02.573Z,89.80
2019-02-05T10:20:31.085Z,89.10
2019-02-05T10:23:02.145Z,86.90
2019-02-05T10:25:30.657Z,86.80
2019-02-05T10:27:59.493Z,87.50
2019-02-05T10:30:30.803Z,86.30
2019-02-05T10:32:59.861Z,86.50
2019-02-05T10:35:28.636Z,85.80
2019-02-05T10:37:57.305Z,85.50
2019-02-05T10:40:26.609Z,88.60
2019-02-05T10:42:55.125Z,85.00
2019-02-05T10:45:26.001Z,86.20
2019-02-05T10:47:54.953Z,85.60
2019-02-05T10:50:23.817Z,83.70
2019-02-05T10:52:52.724Z,83.70
2019-02-05T10:55:24.959Z,83.70
2019-02-05T10:57:55.583Z,85.50
2019-02-05T11:00:29.548Z,83.60
2019-02-05T11:03:00.034Z,79.70
2019-02-05T11:05:29.772Z,78.10
2019-02-05T11:07:58.714Z,79.70
2019-02-05T11:10:27.379Z,79.70
2019-02-05T11:12:56.071Z,78.80
2019-02-05T11:15:27.268Z,77.30
2019-02-05T11:17:55.949Z,75.40
2019-02-05T11:20:26.285Z,77.30
2019-02-05T11:22:56.515Z,77.10
2019-02-05T11:25:25.280Z,71.40
2019-02-05T11:27:53.917Z,69.30
2019-02-05T11:30:39.652Z,70.40
2019-02-05T11:33:08.644Z,72.10
2019-02-05T11:35:37.512Z,71.90
2019-02-05T11:38:07.085Z,75.40
2019-02-05T11:40:37.825Z,77.20
2019-02-05T11:43:06.419Z,71.70
2019-02-05T11:45:35.049Z,76.10
2019-02-05T11:48:08.801Z,71.70
2019-02-05T11:50:37.818Z,71.60
2019-02-05T11:53:06.818Z,70.90
2019-02-05T11:55:36.238Z,71.00
2019-02-05T11:58:05.372Z,70.80
2019-02-05T12:00:51.170Z,71.20
2019-02-05T12:03:20.059Z,73.60
2019-02-05T12:05:48.886Z,70.50
2019-02-05T12:08:18.677Z,70.20
2019-02-05T12:10:47.540Z,69.20
2019-02-05T12:13:16.057Z,66.20
2019-02-05T12:15:45.082Z,67.80
2019-02-05T12:18:14.264Z,63.70
2019-02-05T12:20:43.358Z,63.20
2019-02-05T12:23:11.869Z,67.30
2019-02-05T12:25:40.622Z,69.20
2019-02-05T12:28:09.137Z,72.10
2019-02-05T12:30:45.709Z,66.00
2019-02-05T12:33:12.526Z,67.50
2019-02-05T12:35:41.309Z,67.70
2019-02-05T12:38:10.089Z,66.70
2019-02-05T12:40:38.584Z,64.20
2019-02-05T12:43:07.097Z,68.40
2019-02-05T12:45:39.585Z,68.20
2019-02-05T12:48:08.426Z,64.50
2019-02-05T12:50:38.890Z,67.40
2019-02-05T12:53:07.773Z,66.50
2019-02-05T12:55:36.420Z,68.90
2019-02-05T12:58:05.769Z,62.90
2019-02-05T13:00:37.284Z,61.00
2019-02-05T13:03:07.209Z,63.20
2019-02-05T13:05:35.772Z,59.30
2019-02-05T13:08:05.576Z,57.90
2019-02-05T13:10:39.566Z,57.40
2019-02-05T13:13:09.029Z,62.10
2019-02-05T13:15:37.700Z,58.80
2019-02-05T13:18:07.122Z,61.50
2019-02-05T13:20:35.979Z,59.00
2019-02-05T13:23:05.744Z,58.00
2019-02-05T13:25:35.194Z,60.70
2019-02-05T13:28:05.342Z,64.90
2019-02-05T13:30:35.648Z,65.80
2019-02-05T13:33:06.186Z,61.80
2019-02-05T13:35:35.385Z,64.30
2019-02-05T13:38:04.498Z,65.60
2019-02-05T13:40:33.285Z,65.90
2019-02-05T13:43:01.783Z,65.90
2019-02-05T13:45:33.302Z,67.50
2019-02-05T13:48:01.974Z,67.70
2019-02-05T13:50:33.667Z,66.30
2019-02-05T13:53:02.870Z,62.60
2019-02-05T13:55:37.372Z,63.10
2019-02-05T13:58:06.167Z,64.30
2019-02-05T14:00:42.919Z,67.10
2019-02-05T14:03:12.153Z,64.50
2019-02-05T14:05:40.829Z,63.70
2019-02-05T14:08:09.497Z,64.80
2019-02-05T14:10:40.854Z,58.90
2019-02-05T14:13:09.642Z,57.20
2019-02-05T14:15:46.950Z,55.60
2019-02-05T14:18:15.373Z,52.70
2019-02-05T14:20:44.107Z,52.90
2019-02-05T14:23:13.576Z,54.30
2019-02-05T14:25:42.391Z,51.60
2019-02-05T14:28:10.882Z,51.20
2019-02-05T14:30:51.130Z,50.50
2019-02-05T14:33:19.849Z,50.20
2019-02-05T14:35:48.524Z,50.00
2019-02-05T14:38:17.290Z,50.30
2019-02-05T14:40:45.726Z,48.20
2019-02-05T14:43:14.558Z,48.10
2019-02-05T14:45:43.369Z,50.20
2019-02-05T14:48:11.930Z,51.10
2019-02-05T14:50:43.186Z,47.90
2019-02-05T14:53:12.657Z,47.60
2019-02-05T14:55:41.169Z,50.20
2019-02-05T14:58:11.336Z,48.90
2019-02-05T15:00:40.312Z,49.90
2019-02-05T15:03:10.780Z,52.70
2019-02-05T15:05:40.152Z,52.30
2019-02-05T15:08:09.722Z,54.40
2019-02-05T15:10:38.414Z,57.80
2019-02-05T15:13:07.498Z,56.30
2019-02-05T15:15:36.009Z,58.10
2019-02-05T15:18:06.161Z,56.30
2019-02-05T15:20:40.289Z,55.80
2019-02-05T15:23:09.054Z,57.90
2019-02-05T15:25:37.631Z,56.50
2019-02-05T15:28:06.473Z,56.20
2019-02-05T15:30:37.248Z,56.00
2019-02-05T15:33:09.845Z,57.40
2019-02-05T15:35:40.004Z,59.40
2019-02-05T15:38:08.493Z,59.60
2019-02-05T15:40:37.466Z,58.10
2019-02-05T15:43:06.414Z,60.30
2019-02-05T15:45:35.281Z,62.90
2019-02-05T15:48:03.972Z,64.60
2019-02-05T15:50:32.766Z,66.20
2019-02-05T15:53:01.191Z,69.80
2019-02-05T15:55:29.625Z,71.50
2019-02-05T15:57:58.611Z,73.30
2019-02-05T16:00:29.041Z,74.80
2019-02-05T16:02:58.042Z,76.50
2019-02-05T16:05:28.007Z,77.40
2019-02-05T16:07:56.485Z,79.80
2019-02-05T16:10:26.555Z,82.00
2019-02-05T16:12:55.651Z,84.20
2019-02-05T16:15:24.436Z,87.30
2019-02-05T16:17:53.213Z,88.50
2019-02-05T16:20:22.615Z,90.60
2019-02-05T16:22:51.430Z,90.90
2019-02-05T16:25:20.209Z,91.80
2019-02-05T16:27:50.397Z,91.80
2019-02-05T16:30:24.438Z,92.50
2019-02-05T16:32:52.901Z,92.60
2019-02-05T16:35:21.506Z,92.80
2019-02-05T16:37:50.789Z,93.00
2019-02-05T16:40:34.573Z,93.80
2019-02-05T16:43:03.371Z,93.80
2019-02-05T16:45:32.739Z,93.70
2019-02-05T16:48:01.190Z,94.00
2019-02-05T16:50:38.573Z,94.10
2019-02-05T16:53:08.614Z,94.30
2019-02-05T16:55:37.160Z,94.30
2019-02-05T16:58:06.796Z,94.60
2019-02-05T17:00:36.456Z,95.00
2019-02-05T17:03:06.036Z,94.80
2019-02-05T17:05:37.162Z,94.80
2019-02-05T17:08:06.056Z,94.60
2019-02-05T17:10:34.718Z,94.80
2019-02-05T17:13:03.758Z,94.80
2019-02-05T17:15:32.199Z,94.90
2019-02-05T17:18:00.708Z,94.90
2019-02-05T17:20:33.497Z,94.90
2019-02-05T17:23:02.290Z,94.90
2019-02-05T17:25:30.783Z,95.00
2019-02-05T17:28:01.808Z,95.00
2019-02-05T17:30:36.022Z,95.60
2019-02-05T17:33:05.405Z,95.40
2019-02-05T17:35:35.444Z,95.50
2019-02-05T17:38:06.302Z,96.00
2019-02-05T17:40:35.055Z,96.10
2019-02-05T17:43:03.868Z,95.50
2019-02-05T17:45:40.301Z,95.40
2019-02-05T17:48:11.853Z,95.00
2019-02-05T17:50:41.062Z,95.30
2019-02-05T17:53:09.721Z,95.80
2019-02-05T17:55:38.346Z,94.60
2019-02-05T17:58:07.672Z,95.00
2019-02-05T18:00:39.162Z,94.80
2019-02-05T18:03:07.674Z,95.40
2019-02-05T18:05:36.770Z,95.80
2019-02-05T18:08:05.743Z,96.00
2019-02-05T18:10:36.970Z,96.20
2019-02-05T18:13:08.562Z,96.10
2019-02-05T18:15:39.293Z,96.10
2019-02-05T18:18:08.406Z,96.00
2019-02-05T18:20:37.193Z,95.80
2019-02-05T18:23:07.769Z,96.00
2019-02-05T18:25:36.718Z,95.80
2019-02-05T18:28:05.897Z,96.00
2019-02-05T18:30:36.966Z,96.00
2019-02-05T18:33:06.200Z,95.90
2019-02-05T18:35:34.853Z,96.00
2019-02-05T18:38:06.416Z,95.90
2019-02-05T18:40:34.966Z,96.20
2019-02-05T18:43:03.481Z,96.20
2019-02-05T18:45:32.338Z,96.20
2019-02-05T18:48:00.770Z,96.40
2019-02-05T18:50:30.217Z,96.60
2019-02-05T18:52:59.014Z,96.60
2019-02-05T18:55:33.917Z,96.60
2019-02-05T18:58:09.437Z,97.00
2019-02-05T19:00:35.039Z,97.40
2019-02-05T19:03:14.540Z,97.40
2019-02-05T19:05:34.455Z,97.60
2019-02-05T19:08:03.209Z,97.30
2019-02-05T19:10:33.889Z,97.60
2019-02-05T19:13:02.755Z,97.50
2019-02-05T19:15:39.385Z,97.60
2019-02-05T19:18:09.265Z,97.60
2019-02-05T19:20:37.849Z,97.60
2019-02-05T19:23:08.317Z,97.60
2019-02-05T19:25:45.105Z,97.50
2019-02-05T19:28:15.172Z,97.90
2019-02-05T19:30:45.869Z,97.90
2019-02-05T19:33:14.314Z,98.10
2019-02-05T19:35:42.741Z,98.10
2019-02-05T19:38:13.446Z,98.20
2019-02-05T19:40:41.845Z,98.20
2019-02-05T19:43:10.626Z,98.30
2019-02-05T19:45:41.457Z,98.40
2019-02-05T19:48:20.801Z,98.60
2019-02-05T19:50:49.729Z,98.70
2019-02-05T19:53:18.546Z,99.00
2019-02-05T19:55:47.098Z,99.10
2019-02-05T19:58:15.615Z,99.20
2019-02-05T20:00:44.041Z,99.20
2019-02-05T20:03:13.226Z,99.20
2019-02-05T20:05:41.665Z,99.20
2019-02-05T20:08:10.097Z,99.00
2019-02-05T20:10:38.621Z,99.10
2019-02-05T20:13:07.272Z,99.10
2019-02-05T20:15:35.717Z,99.10
2019-02-05T20:18:04.429Z,99.10
2019-02-05T20:20:33.618Z,99.20
2019-02-05T20:23:02.074Z,99.10
2019-02-05T20:25:32.734Z,99.10
2019-02-05T20:28:01.254Z,99.10
2019-02-05T20:30:29.697Z,99.20
2019-02-05T20:32:58.481Z,98.90
2019-02-05T20:35:27.352Z,99.10
2019-02-05T20:37:56.187Z,99.10
2019-02-05T20:40:26.377Z,99.10
2019-02-05T20:42:55.161Z,99.20
2019-02-05T20:45:23.828Z,99.10
2019-02-05T20:47:55.782Z,99.10
2019-02-05T20:50:23.243Z,99.10
2019-02-05T20:52:51.688Z,99.20
2019-02-05T20:55:24.625Z,99.20
2019-02-05T20:57:53.639Z,99.10
2019-02-05T21:00:31.648Z,99.40
2019-02-05T21:03:00.336Z,99.30
2019-02-05T21:05:28.854Z,99.10
2019-02-05T21:07:58.709Z,99.10
2019-02-05T21:10:31.261Z,99.00
2019-02-05T21:13:32.003Z,99.30
2019-02-05T21:15:42.763Z,99.40
2019-02-05T21:18:11.614Z,99.70
2019-02-05T21:20:40.517Z,99.60
2019-02-05T21:23:09.217Z,99.70
2019-02-05T21:25:39.761Z,99.50
2019-02-05T21:28:08.241Z,99.40
2019-02-05T21:30:36.687Z,99.30
2019-02-05T21:33:05.277Z,99.30
2019-02-05T21:35:33.850Z,99.50
2019-02-05T21:38:02.478Z,99.80
2019-02-05T21:40:31.723Z,99.70
2019-02-05T21:43:00.234Z,99.60
2019-02-05T21:45:30.936Z,99.60
2019-02-05T21:47:59.420Z,99.70
2019-02-05T21:50:27.985Z,99.60
2019-02-05T21:52:57.305Z,99.40
2019-02-05T21:55:26.875Z,99.40
2019-02-05T21:57:56.634Z,99.40
2019-02-05T22:00:29.898Z,99.30
2019-02-05T22:02:58.837Z,99.20
2019-02-05T22:05:29.363Z,99.80
2019-02-05T22:07:58.115Z,99.50
2019-02-05T22:10:26.711Z,99.30
2019-02-05T22:12:55.196Z,99.50
2019-02-05T22:15:24.076Z,99.50
2019-02-05T22:17:52.869Z,99.70
2019-02-05T22:20:26.603Z,99.90
2019-02-05T22:22:56.301Z,99.90
2019-02-05T22:25:30.905Z,99.90
2019-02-05T22:27:59.763Z,99.90
2019-02-05T22:30:40.874Z,99.90
2019-02-05T22:33:09.765Z,99.90
2019-02-05T22:35:38.349Z,99.90
2019-02-05T22:38:07.011Z,99.80
2019-02-05T22:40:35.829Z,99.80
2019-02-05T22:43:05.537Z,99.70
2019-02-05T22:45:34.629Z,99.60
2019-02-05T22:48:03.383Z,99.70
2019-02-05T22:50:33.640Z,99.90
2019-02-05T22:53:04.737Z,99.80
2019-02-05T22:55:35.287Z,99.80
2019-02-05T22:58:04.869Z,99.70
2019-02-05T23:00:46.882Z,99.80
2019-02-05T23:03:16.001Z,99.40
2019-02-05T23:05:53.466Z,99.30
2019-02-05T23:08:22.278Z,99.30
2019-02-05T23:11:12.081Z,99.20
2019-02-05T23:13:40.870Z,99.10
2019-02-05T23:16:09.677Z,99.40
2019-02-05T23:18:38.506Z,99.40
2019-02-05T23:21:07.016Z,99.40
2019-02-05T23:23:35.717Z,99.50
2019-02-05T23:26:05.733Z,99.40
2019-02-05T23:28:34.628Z,99.10
2019-02-05T23:31:03.421Z,99.00
2019-02-05T23:33:32.202Z,99.10
2019-02-05T23:36:00.625Z,99.00
2019-02-05T23:38:30.145Z,99.30
2019-02-05T23:40:58.689Z,99.40
2019-02-05T23:43:27.869Z,99.40
2019-02-05T23:46:01.271Z,99.50
2019-02-05T23:48:26.465Z,99.50
2019-02-05T23:50:54.973Z,99.50
2019-02-05T23:53:23.414Z,99.40
2019-02-05T23:55:51.846Z,99.40
2019-02-05T23:58:20.293Z,99.30
